TAF KCKB
AMD KCKB 080302Z 0803/0824 35002KT P6SM OVC100 FM080700 26004KT P6SM VCSH SCT020 OVC060 FM080900 26004KT 2SM -SN FEW008 BKN015 OVC040 FM081500 23004KT P6SM VCSH SCT020 BKN050 FM081800 27005KT P6SM BKN050=
METAR KCKB
WC KCKB
WS KCKB
WV KCKB